sensor_id;sensor_type;location;lat;lon;timestamp;pressure;altitude;pressure_sealevel;temperature;humidity
19236;BME280;9752;54.270;12.470;2023-04-15T00:00:21;102678.56;;;6.01;100.00
19236;BME280;9752;54.270;12.470;2023-04-15T00:05:23;102684.78;;;6.03;100.00
19236;BME280;9752;54.270;12.470;2023-04-15T00:10:25;102671.59;;;6.00;100.00
19236;BME280;9752;54.270;12.470;2023-04-15T00:15:28;102663.44;;;6.04;100.00
19236;BME280;9752;54.270;12.470;2023-04-15T00:20:29;102685.88;;;6.05;100.00
19236;BME280;9752;54.270;12.470;2023-04-15T00:25:31;102700.00;;;6.09;100.00
19236;BME280;9752;54.270;12.470;2023-04-15T00:30:34;102695.91;;;6.11;100.00
19236;BME280;9752;54.270;12.470;2023-04-15T00:35:37;102704.72;;;6.13;100.00
19236;BME280;9752;54.270;12.470;2023-04-15T00:40:38;102704.16;;;6.15;100.00
19236;BME280;9752;54.270;12.470;2023-04-15T00:45:42;102710.31;;;6.24;100.00
19236;BME280;9752;54.270;12.470;2023-04-15T00:50:44;102709.72;;;6.27;100.00
19236;BME280;9752;54.270;12.470;2023-04-15T00:55:46;102714.41;;;6.22;100.00
19236;BME280;9752;54.270;12.470;2023-04-15T01:00:49;102706.41;;;6.28;100.00
19236;BME280;9752;54.270;12.470;2023-04-15T01:05:53;102707.91;;;6.26;100.00
19236;BME280;9752;54.270;12.470;2023-04-15T01:10:58;102705.06;;;6.32;100.00
19236;BME280;9752;54.270;12.470;2023-04-15T01:16:05;102707.81;;;6.33;100.00
19236;BME280;9752;54.270;12.470;2023-04-15T01:21:08;102713.13;;;6.35;100.00
19236;BME280;9752;54.270;12.470;2023-04-15T01:26:12;102715.28;;;6.39;100.00
19236;BME280;9752;54.270;12.470;2023-04-15T01:31:14;102712.16;;;6.41;100.00
19236;BME280;9752;54.270;12.470;2023-04-15T01:36:16;102719.28;;;6.44;100.00
19236;BME280;9752;54.270;12.470;2023-04-15T01:41:24;102711.97;;;6.40;100.00
19236;BME280;9752;54.270;12.470;2023-04-15T01:46:26;102711.22;;;6.41;100.00
19236;BME280;9752;54.270;12.470;2023-04-15T01:51:28;102708.16;;;6.36;100.00
19236;BME280;9752;54.270;12.470;2023-04-15T01:56:31;102687.97;;;6.32;100.00
19236;BME280;9752;54.270;12.470;2023-04-15T02:01:33;102681.22;;;6.25;100.00
19236;BME280;9752;54.270;12.470;2023-04-15T02:06:34;102676.72;;;6.16;100.00
19236;BME280;9752;54.270;12.470;2023-04-15T02:11:38;102675.56;;;6.05;100.00
19236;BME280;9752;54.270;12.470;2023-04-15T02:16:39;102667.94;;;5.98;100.00
19236;BME280;9752;54.270;12.470;2023-04-15T02:21:41;102667.81;;;5.89;100.00
19236;BME280;9752;54.270;12.470;2023-04-15T02:26:44;102654.69;;;5.79;100.00
19236;BME280;9752;54.270;12.470;2023-04-15T02:31:46;102656.44;;;5.71;100.00
19236;BME280;9752;54.270;12.470;2023-04-15T02:36:48;102652.34;;;5.73;100.00
19236;BME280;9752;54.270;12.470;2023-04-15T02:41:56;102666.13;;;5.74;100.00
19236;BME280;9752;54.270;12.470;2023-04-15T02:47:00;102665.47;;;5.67;100.00
19236;BME280;9752;54.270;12.470;2023-04-15T02:52:01;102661.81;;;5.65;100.00
19236;BME280;9752;54.270;12.470;2023-04-15T02:57:04;102668.88;;;5.75;100.00
19236;BME280;9752;54.270;12.470;2023-04-15T03:02:06;102683.00;;;5.79;100.00
19236;BME280;9752;54.270;12.470;2023-04-15T03:07:08;102693.63;;;5.66;100.00
19236;BME280;9752;54.270;12.470;2023-04-15T03:12:12;102697.84;;;5.65;100.00
19236;BME280;9752;54.270;12.470;2023-04-15T03:17:13;102688.41;;;5.50;100.00
19236;BME280;9752;54.270;12.470;2023-04-15T03:22:18;102687.56;;;5.42;100.00
19236;BME280;9752;54.270;12.470;2023-04-15T03:27:21;102687.47;;;5.34;100.00
19236;BME280;9752;54.270;12.470;2023-04-15T03:32:23;102694.78;;;5.38;100.00
19236;BME280;9752;54.270;12.470;2023-04-15T03:37:25;102714.91;;;5.49;100.00
19236;BME280;9752;54.270;12.470;2023-04-15T03:42:28;102727.41;;;5.69;100.00
19236;BME280;9752;54.270;12.470;2023-04-15T03:47:29;102728.91;;;5.67;100.00
19236;BME280;9752;54.270;12.470;2023-04-15T03:52:31;102760.28;;;5.95;100.00
19236;BME280;9752;54.270;12.470;2023-04-15T03:57:34;102770.81;;;6.12;100.00
19236;BME280;9752;54.270;12.470;2023-04-15T04:02:38;102772.00;;;6.07;100.00
19236;BME280;9752;54.270;12.470;2023-04-15T04:07:40;102787.19;;;6.13;100.00
19236;BME280;9752;54.270;12.470;2023-04-15T04:12:43;102794.16;;;6.14;100.00
19236;BME280;9752;54.270;12.470;2023-04-15T04:17:44;102804.72;;;6.24;100.00
19236;BME280;9752;54.270;12.470;2023-04-15T04:22:46;102815.63;;;6.37;100.00
19236;BME280;9752;54.270;12.470;2023-04-15T04:27:49;102821.38;;;6.35;100.00
19236;BME280;9752;54.270;12.470;2023-04-15T04:32:50;102827.63;;;6.37;100.00
19236;BME280;9752;54.270;12.470;2023-04-15T04:37:52;102846.31;;;6.43;100.00
19236;BME280;9752;54.270;12.470;2023-04-15T04:42:55;102848.84;;;6.50;100.00
19236;BME280;9752;54.270;12.470;2023-04-15T04:47:57;102874.91;;;6.60;100.00
19236;BME280;9752;54.270;12.470;2023-04-15T04:52:58;102888.03;;;6.71;100.00
19236;BME280;9752;54.270;12.470;2023-04-15T04:58:01;102899.28;;;6.87;100.00
19236;BME280;9752;54.270;12.470;2023-04-15T05:03:03;102909.09;;;6.98;100.00
19236;BME280;9752;54.270;12.470;2023-04-15T05:08:05;102907.19;;;7.04;100.00
19236;BME280;9752;54.270;12.470;2023-04-15T05:13:08;102908.69;;;7.02;100.00
19236;BME280;9752;54.270;12.470;2023-04-15T05:18:10;102904.59;;;7.04;100.00
19236;BME280;9752;54.270;12.470;2023-04-15T05:23:11;102915.31;;;7.16;100.00
19236;BME280;9752;54.270;12.470;2023-04-15T05:28:14;102915.06;;;7.22;100.00
19236;BME280;9752;54.270;12.470;2023-04-15T05:33:16;102919.72;;;7.33;100.00
19236;BME280;9752;54.270;12.470;2023-04-15T05:38:18;102918.13;;;7.42;100.00
19236;BME280;9752;54.270;12.470;2023-04-15T05:43:21;102928.31;;;7.66;100.00
19236;BME280;9752;54.270;12.470;2023-04-15T05:48:23;102943.84;;;7.90;100.00
19236;BME280;9752;54.270;12.470;2023-04-15T05:53:24;102945.16;;;8.11;100.00
19236;BME280;9752;54.270;12.470;2023-04-15T05:58:27;102950.06;;;8.42;100.00
19236;BME280;9752;54.270;12.470;2023-04-15T06:03:29;102935.38;;;8.58;100.00
19236;BME280;9752;54.270;12.470;2023-04-15T06:08:31;102927.66;;;8.75;100.00
19236;BME280;9752;54.270;12.470;2023-04-15T06:13:34;102927.28;;;9.14;100.00
19236;BME280;9752;54.270;12.470;2023-04-15T06:18:35;102907.75;;;9.18;100.00
19236;BME280;9752;54.270;12.470;2023-04-15T06:23:37;102895.28;;;9.49;100.00
19236;BME280;9752;54.270;12.470;2023-04-15T06:28:41;102872.69;;;9.65;100.00
19236;BME280;9752;54.270;12.470;2023-04-15T06:33:43;102832.81;;;9.54;100.00
19236;BME280;9752;54.270;12.470;2023-04-15T06:38:44;102804.34;;;9.82;100.00
19236;BME280;9752;54.270;12.470;2023-04-15T06:43:47;102787.84;;;10.18;100.00
19236;BME280;9752;54.270;12.470;2023-04-15T06:48:49;102757.44;;;10.26;100.00
19236;BME280;9752;54.270;12.470;2023-04-15T06:53:51;102727.56;;;10.48;100.00
19236;BME280;9752;54.270;12.470;2023-04-15T06:58:54;102672.56;;;10.52;100.00
19236;BME280;9752;54.270;12.470;2023-04-15T07:03:56;102638.03;;;10.72;100.00
19236;BME280;9752;54.270;12.470;2023-04-15T07:08:58;102605.06;;;11.01;100.00
19236;BME280;9752;54.270;12.470;2023-04-15T07:14:02;102560.66;;;11.28;100.00
19236;BME280;9752;54.270;12.470;2023-04-15T07:19:03;102503.78;;;11.31;100.00
19236;BME280;9752;54.270;12.470;2023-04-15T07:24:05;102435.59;;;11.34;100.00
19236;BME280;9752;54.270;12.470;2023-04-15T07:29:08;102373.38;;;11.36;100.00
19236;BME280;9752;54.270;12.470;2023-04-15T07:34:10;102333.94;;;11.62;100.00
19236;BME280;9752;54.270;12.470;2023-04-15T07:39:12;102287.13;;;11.94;100.00
19236;BME280;9752;54.270;12.470;2023-04-15T07:44:15;102218.94;;;12.32;100.00
19236;BME280;9752;54.270;12.470;2023-04-15T07:49:16;102098.91;;;11.92;100.00
19236;BME280;9752;54.270;12.470;2023-04-15T07:54:18;101997.03;;;12.09;100.00
19236;BME280;9752;54.270;12.470;2023-04-15T07:59:21;101894.91;;;12.12;100.00
19236;BME280;9752;54.270;12.470;2023-04-15T08:04:23;101837.06;;;12.78;100.00
19236;BME280;9752;54.270;12.470;2023-04-15T08:09:25;101761.88;;;12.83;100.00
19236;BME280;9752;54.270;12.470;2023-04-15T08:14:28;101681.56;;;12.89;100.00
19236;BME280;9752;54.270;12.470;2023-04-15T08:19:30;101588.16;;;12.67;100.00
19236;BME280;9752;54.270;12.470;2023-04-15T08:24:32;101511.94;;;12.83;100.00
19236;BME280;9752;54.270;12.470;2023-04-15T08:29:35;101454.41;;;12.93;100.00
19236;BME280;9752;54.270;12.470;2023-04-15T08:34:36;101415.50;;;13.69;100.00
19236;BME280;9752;54.270;12.470;2023-04-15T08:39:38;101359.09;;;13.40;100.00
19236;BME280;9752;54.270;12.470;2023-04-15T08:44:41;101310.66;;;13.14;100.00
19236;BME280;9752;54.270;12.470;2023-04-15T08:49:43;101308.16;;;11.99;100.00
19236;BME280;9752;54.270;12.470;2023-04-15T08:54:46;101312.31;;;12.39;100.00
19236;BME280;9752;54.270;12.470;2023-04-15T08:59:50;101322.44;;;11.93;100.00
19236;BME280;9752;54.270;12.470;2023-04-15T09:04:52;101336.53;;;11.83;100.00
19236;BME280;9752;54.270;12.470;2023-04-15T09:09:54;101342.72;;;11.71;100.00
19236;BME280;9752;54.270;12.470;2023-04-15T09:14:58;101344.84;;;11.50;100.00
19236;BME280;9752;54.270;12.470;2023-04-15T09:20:10;101345.34;;;11.31;100.00
19236;BME280;9752;54.270;12.470;2023-04-15T09:25:25;101354.25;;;11.62;100.00
19236;BME280;9752;54.270;12.470;2023-04-15T09:30:29;101353.72;;;11.14;100.00
19236;BME280;9752;54.270;12.470;2023-04-15T09:35:31;101368.81;;;11.20;100.00
19236;BME280;9752;54.270;12.470;2023-04-15T09:40:34;101364.25;;;11.96;100.00
19236;BME280;9752;54.270;12.470;2023-04-15T09:45:38;101370.56;;;12.56;100.00
19236;BME280;9752;54.270;12.470;2023-04-15T09:50:40;101360.53;;;12.62;100.00
19236;BME280;9752;54.270;12.470;2023-04-15T09:55:44;101353.69;;;12.21;100.00
19236;BME280;9752;54.270;12.470;2023-04-15T10:00:48;101339.69;;;12.19;100.00
19236;BME280;9752;54.270;12.470;2023-04-15T10:05:52;101333.59;;;12.46;100.00
19236;BME280;9752;54.270;12.470;2023-04-15T10:10:55;101325.38;;;12.12;100.00
19236;BME280;9752;54.270;12.470;2023-04-15T10:15:59;101322.38;;;12.47;100.00
19236;BME280;9752;54.270;12.470;2023-04-15T10:21:01;101321.44;;;13.05;100.00
19236;BME280;9752;54.270;12.470;2023-04-15T10:26:05;101303.41;;;14.00;100.00
19236;BME280;9752;54.270;12.470;2023-04-15T10:31:11;101264.28;;;14.00;100.00
19236;BME280;9752;54.270;12.470;2023-04-15T10:36:13;101263.78;;;12.84;100.00
19236;BME280;9752;54.270;12.470;2023-04-15T10:41:17;101262.69;;;12.07;100.00
19236;BME280;9752;54.270;12.470;2023-04-15T10:46:34;101284.28;;;12.35;100.00
19236;BME280;9752;54.270;12.470;2023-04-15T10:51:39;101285.16;;;13.08;100.00
19236;BME280;9752;54.270;12.470;2023-04-15T10:56:41;101286.34;;;12.83;100.00
19236;BME280;9752;54.270;12.470;2023-04-15T11:01:53;101279.56;;;13.32;100.00
19236;BME280;9752;54.270;12.470;2023-04-15T11:07:04;101280.28;;;13.14;100.00
19236;BME280;9752;54.270;12.470;2023-04-15T11:12:07;101277.06;;;13.18;100.00
19236;BME280;9752;54.270;12.470;2023-04-15T11:17:11;101279.19;;;13.25;100.00
19236;BME280;9752;54.270;12.470;2023-04-15T11:22:12;101281.22;;;13.15;100.00
19236;BME280;9752;54.270;12.470;2023-04-15T11:27:20;101283.53;;;13.40;100.00
19236;BME280;9752;54.270;12.470;2023-04-15T11:32:23;101285.06;;;12.92;100.00
19236;BME280;9752;54.270;12.470;2023-04-15T11:37:28;101283.63;;;12.97;100.00
19236;BME280;9752;54.270;12.470;2023-04-15T11:42:30;101278.16;;;12.77;100.00
19236;BME280;9752;54.270;12.470;2023-04-15T11:47:33;101274.81;;;12.50;100.00
19236;BME280;9752;54.270;12.470;2023-04-15T11:52:35;101291.97;;;12.76;100.00
19236;BME280;9752;54.270;12.470;2023-04-15T11:57:36;101295.56;;;12.48;100.00
19236;BME280;9752;54.270;12.470;2023-04-15T12:02:39;101304.28;;;13.08;100.00
19236;BME280;9752;54.270;12.470;2023-04-15T12:07:56;101304.38;;;14.35;100.00
19236;BME280;9752;54.270;12.470;2023-04-15T12:12:58;101291.84;;;13.80;100.00
19236;BME280;9752;54.270;12.470;2023-04-15T12:18:01;101303.41;;;13.69;100.00
19236;BME280;9752;54.270;12.470;2023-04-15T12:23:05;101307.59;;;13.82;100.00
19236;BME280;9752;54.270;12.470;2023-04-15T12:28:10;101300.00;;;13.70;100.00
19236;BME280;9752;54.270;12.470;2023-04-15T12:33:16;101303.19;;;13.81;100.00
19236;BME280;9752;54.270;12.470;2023-04-15T12:38:20;101322.34;;;13.35;100.00
19236;BME280;9752;54.270;12.470;2023-04-15T12:43:22;101335.16;;;12.44;100.00
19236;BME280;9752;54.270;12.470;2023-04-15T12:48:25;101339.38;;;12.27;100.00
19236;BME280;9752;54.270;12.470;2023-04-15T12:53:27;101338.75;;;11.90;100.00
19236;BME280;9752;54.270;12.470;2023-04-15T12:58:28;101345.81;;;12.62;100.00
19236;BME280;9752;54.270;12.470;2023-04-15T13:03:32;101349.16;;;12.60;100.00
19236;BME280;9752;54.270;12.470;2023-04-15T13:08:34;101349.38;;;12.93;100.00
19236;BME280;9752;54.270;12.470;2023-04-15T13:13:35;101352.81;;;12.63;100.00
19236;BME280;9752;54.270;12.470;2023-04-15T13:18:38;101354.69;;;12.94;100.00
19236;BME280;9752;54.270;12.470;2023-04-15T13:23:40;101348.00;;;12.41;100.00
19236;BME280;9752;54.270;12.470;2023-04-15T13:28:42;101360.03;;;12.67;100.00
19236;BME280;9752;54.270;12.470;2023-04-15T13:33:45;101354.88;;;12.26;100.00
19236;BME280;9752;54.270;12.470;2023-04-15T13:38:47;101355.75;;;12.55;100.00
19236;BME280;9752;54.270;12.470;2023-04-15T13:43:48;101367.66;;;12.23;100.00
19236;BME280;9752;54.270;12.470;2023-04-15T13:48:52;101377.00;;;12.06;100.00
19236;BME280;9752;54.270;12.470;2023-04-15T13:53:53;101384.66;;;12.59;100.00
19236;BME280;9752;54.270;12.470;2023-04-15T13:58:56;101391.38;;;12.99;100.00
19236;BME280;9752;54.270;12.470;2023-04-15T14:04:00;101397.84;;;12.91;100.00
19236;BME280;9752;54.270;12.470;2023-04-15T14:09:01;101403.50;;;12.00;100.00
19236;BME280;9752;54.270;12.470;2023-04-15T14:14:03;101419.97;;;11.74;100.00
19236;BME280;9752;54.270;12.470;2023-04-15T14:19:07;101419.16;;;11.35;100.00
19236;BME280;9752;54.270;12.470;2023-04-15T14:24:09;101432.69;;;10.42;100.00
19236;BME280;9752;54.270;12.470;2023-04-15T14:29:11;101429.25;;;9.94;100.00
19236;BME280;9752;54.270;12.470;2023-04-15T14:34:14;101438.50;;;9.79;100.00
19236;BME280;9752;54.270;12.470;2023-04-15T14:39:15;101448.84;;;9.91;100.00
19236;BME280;9752;54.270;12.470;2023-04-15T14:44:17;101466.75;;;9.64;100.00
19236;BME280;9752;54.270;12.470;2023-04-15T14:49:20;101479.50;;;9.96;100.00
19236;BME280;9752;54.270;12.470;2023-04-15T14:54:22;101489.63;;;9.82;100.00
19236;BME280;9752;54.270;12.470;2023-04-15T14:59:24;101500.88;;;9.82;100.00
19236;BME280;9752;54.270;12.470;2023-04-15T15:04:27;101514.63;;;9.81;100.00
19236;BME280;9752;54.270;12.470;2023-04-15T15:09:29;101528.03;;;9.75;100.00
19236;BME280;9752;54.270;12.470;2023-04-15T15:14:31;101537.41;;;9.40;100.00
19236;BME280;9752;54.270;12.470;2023-04-15T15:19:34;101545.72;;;9.35;100.00
19236;BME280;9752;54.270;12.470;2023-04-15T15:24:36;101553.50;;;9.35;100.00
19236;BME280;9752;54.270;12.470;2023-04-15T15:29:38;101574.28;;;9.37;100.00
19236;BME280;9752;54.270;12.470;2023-04-15T15:34:41;101583.28;;;9.30;100.00
19236;BME280;9752;54.270;12.470;2023-04-15T15:39:42;101598.94;;;9.32;100.00
19236;BME280;9752;54.270;12.470;2023-04-15T15:44:44;101603.75;;;9.27;100.00
19236;BME280;9752;54.270;12.470;2023-04-15T15:49:49;101605.28;;;9.35;100.00
19236;BME280;9752;54.270;12.470;2023-04-15T15:54:51;101604.94;;;9.43;100.00
19236;BME280;9752;54.270;12.470;2023-04-15T15:59:53;101610.88;;;9.30;100.00
19236;BME280;9752;54.270;12.470;2023-04-15T16:04:56;101616.66;;;9.37;100.00
19236;BME280;9752;54.270;12.470;2023-04-15T16:09:58;101621.81;;;9.37;100.00
19236;BME280;9752;54.270;12.470;2023-04-15T16:15:00;101626.88;;;9.14;100.00
19236;BME280;9752;54.270;12.470;2023-04-15T16:20:04;101637.09;;;9.12;100.00
19236;BME280;9752;54.270;12.470;2023-04-15T16:25:06;101644.97;;;8.92;100.00
19236;BME280;9752;54.270;12.470;2023-04-15T16:30:10;101650.22;;;8.71;100.00
19236;BME280;9752;54.270;12.470;2023-04-15T16:35:13;101667.31;;;8.49;100.00
19236;BME280;9752;54.270;12.470;2023-04-15T16:40:16;101659.16;;;8.34;100.00
19236;BME280;9752;54.270;12.470;2023-04-15T16:45:19;101717.84;;;8.25;100.00
19236;BME280;9752;54.270;12.470;2023-04-15T16:50:22;101728.72;;;8.10;100.00
19236;BME280;9752;54.270;12.470;2023-04-15T16:55:23;101736.28;;;7.88;100.00
19236;BME280;9752;54.270;12.470;2023-04-15T17:00:27;101762.88;;;7.77;100.00
19236;BME280;9752;54.270;12.470;2023-04-15T17:05:30;101789.44;;;7.66;100.00
19236;BME280;9752;54.270;12.470;2023-04-15T17:10:31;101822.88;;;7.64;100.00
19236;BME280;9752;54.270;12.470;2023-04-15T17:15:33;101845.72;;;7.59;100.00
19236;BME280;9752;54.270;12.470;2023-04-15T17:20:37;101873.63;;;7.45;100.00
19236;BME280;9752;54.270;12.470;2023-04-15T17:25:39;101910.81;;;7.47;100.00
19236;BME280;9752;54.270;12.470;2023-04-15T17:30:41;101935.25;;;7.31;100.00
19236;BME280;9752;54.270;12.470;2023-04-15T17:35:44;101960.41;;;7.34;100.00
19236;BME280;9752;54.270;12.470;2023-04-15T17:40:45;101985.63;;;7.36;100.00
19236;BME280;9752;54.270;12.470;2023-04-15T17:45:47;102012.97;;;7.34;100.00
19236;BME280;9752;54.270;12.470;2023-04-15T17:50:50;102032.56;;;7.32;100.00
19236;BME280;9752;54.270;12.470;2023-04-15T17:55:52;102057.88;;;7.36;100.00
19236;BME280;9752;54.270;12.470;2023-04-15T18:00:55;102069.06;;;7.46;100.00
19236;BME280;9752;54.270;12.470;2023-04-15T18:05:58;102088.75;;;7.54;100.00
19236;BME280;9752;54.270;12.470;2023-04-15T18:11:00;102096.75;;;7.57;100.00
19236;BME280;9752;54.270;12.470;2023-04-15T18:16:02;102099.91;;;7.44;100.00
19236;BME280;9752;54.270;12.470;2023-04-15T18:21:05;102119.50;;;7.42;100.00
19236;BME280;9752;54.270;12.470;2023-04-15T18:26:07;102134.50;;;7.46;100.00
19236;BME280;9752;54.270;12.470;2023-04-15T18:31:09;102147.69;;;7.49;100.00
19236;BME280;9752;54.270;12.470;2023-04-15T18:36:12;102175.50;;;7.52;100.00
19236;BME280;9752;54.270;12.470;2023-04-15T18:41:14;102176.53;;;7.54;100.00
19236;BME280;9752;54.270;12.470;2023-04-15T18:46:16;102184.47;;;7.47;100.00
19236;BME280;9752;54.270;12.470;2023-04-15T18:51:19;102194.16;;;7.49;100.00
19236;BME280;9752;54.270;12.470;2023-04-15T18:56:21;102190.25;;;7.44;100.00
19236;BME280;9752;54.270;12.470;2023-04-15T19:01:23;102200.28;;;7.41;100.00
19236;BME280;9752;54.270;12.470;2023-04-15T19:06:26;102208.19;;;7.34;100.00
19236;BME280;9752;54.270;12.470;2023-04-15T19:11:27;102212.13;;;7.30;100.00
19236;BME280;9752;54.270;12.470;2023-04-15T19:16:30;102214.44;;;7.27;100.00
19236;BME280;9752;54.270;12.470;2023-04-15T19:21:33;102227.81;;;7.23;100.00
19236;BME280;9752;54.270;12.470;2023-04-15T19:26:35;102236.78;;;7.18;100.00
19236;BME280;9752;54.270;12.470;2023-04-15T19:31:37;102250.59;;;7.18;100.00
19236;BME280;9752;54.270;12.470;2023-04-15T19:36:40;102270.47;;;7.19;100.00
19236;BME280;9752;54.270;12.470;2023-04-15T19:41:42;102281.13;;;7.14;100.00
19236;BME280;9752;54.270;12.470;2023-04-15T19:46:44;102286.56;;;7.17;100.00
19236;BME280;9752;54.270;12.470;2023-04-15T19:51:50;102295.34;;;7.19;100.00
19236;BME280;9752;54.270;12.470;2023-04-15T19:56:52;102298.72;;;7.18;100.00
19236;BME280;9752;54.270;12.470;2023-04-15T20:01:53;102304.50;;;7.15;100.00
19236;BME280;9752;54.270;12.470;2023-04-15T20:06:58;102311.19;;;7.04;100.00
19236;BME280;9752;54.270;12.470;2023-04-15T20:11:59;102316.47;;;6.97;100.00
19236;BME280;9752;54.270;12.470;2023-04-15T20:17:01;102321.50;;;6.87;100.00
19236;BME280;9752;54.270;12.470;2023-04-15T20:22:04;102332.25;;;6.74;100.00
19236;BME280;9752;54.270;12.470;2023-04-15T20:27:06;102341.19;;;6.60;100.00
19236;BME280;9752;54.270;12.470;2023-04-15T20:32:08;102345.25;;;6.50;100.00
19236;BME280;9752;54.270;12.470;2023-04-15T20:37:12;102361.16;;;6.45;100.00
19236;BME280;9752;54.270;12.470;2023-04-15T20:42:14;102372.66;;;6.40;100.00
19236;BME280;9752;54.270;12.470;2023-04-15T20:47:15;102375.34;;;6.33;100.00
19236;BME280;9752;54.270;12.470;2023-04-15T20:52:19;102399.91;;;6.30;100.00
19236;BME280;9752;54.270;12.470;2023-04-15T20:57:21;102419.72;;;6.22;100.00
19236;BME280;9752;54.270;12.470;2023-04-15T21:02:24;102424.84;;;6.13;100.00
19236;BME280;9752;54.270;12.470;2023-04-15T21:07:27;102433.59;;;6.06;100.00
19236;BME280;9752;54.270;12.470;2023-04-15T21:12:29;102443.09;;;5.99;100.00
19236;BME280;9752;54.270;12.470;2023-04-15T21:17:30;102463.91;;;5.93;100.00
19236;BME280;9752;54.270;12.470;2023-04-15T21:22:34;102482.56;;;5.91;100.00
19236;BME280;9752;54.270;12.470;2023-04-15T21:27:36;102485.13;;;5.91;100.00
19236;BME280;9752;54.270;12.470;2023-04-15T21:32:38;102501.81;;;5.94;100.00
19236;BME280;9752;54.270;12.470;2023-04-15T21:37:41;102512.84;;;5.93;100.00
19236;BME280;9752;54.270;12.470;2023-04-15T21:42:42;102521.84;;;5.97;100.00
19236;BME280;9752;54.270;12.470;2023-04-15T21:47:44;102529.06;;;5.92;100.00
19236;BME280;9752;54.270;12.470;2023-04-15T21:52:47;102543.53;;;5.99;100.00
19236;BME280;9752;54.270;12.470;2023-04-15T21:57:49;102557.50;;;6.01;100.00
19236;BME280;9752;54.270;12.470;2023-04-15T22:02:50;102556.00;;;6.03;100.00
19236;BME280;9752;54.270;12.470;2023-04-15T22:07:53;102559.81;;;6.06;100.00
19236;BME280;9752;54.270;12.470;2023-04-15T22:12:57;102564.22;;;6.08;100.00
19236;BME280;9752;54.270;12.470;2023-04-15T22:18:02;102560.31;;;6.11;100.00
19236;BME280;9752;54.270;12.470;2023-04-15T22:23:05;102562.13;;;6.12;100.00
19236;BME280;9752;54.270;12.470;2023-04-15T22:28:09;102561.38;;;6.13;100.00
19236;BME280;9752;54.270;12.470;2023-04-15T22:33:10;102559.88;;;6.15;100.00
19236;BME280;9752;54.270;12.470;2023-04-15T22:38:13;102560.44;;;6.13;100.00
19236;BME280;9752;54.270;12.470;2023-04-15T22:43:15;102553.97;;;6.16;100.00
19236;BME280;9752;54.270;12.470;2023-04-15T22:48:17;102558.97;;;6.15;100.00
19236;BME280;9752;54.270;12.470;2023-04-15T22:53:20;102563.88;;;6.20;100.00
19236;BME280;9752;54.270;12.470;2023-04-15T22:58:22;102555.03;;;6.18;100.00
19236;BME280;9752;54.270;12.470;2023-04-15T23:03:24;102561.31;;;6.20;100.00
19236;BME280;9752;54.270;12.470;2023-04-15T23:08:27;102565.34;;;6.18;100.00
19236;BME280;9752;54.270;12.470;2023-04-15T23:13:28;102559.56;;;6.12;100.00
19236;BME280;9752;54.270;12.470;2023-04-15T23:18:30;102558.03;;;6.14;100.00
19236;BME280;9752;54.270;12.470;2023-04-15T23:23:33;102562.28;;;6.14;100.00
19236;BME280;9752;54.270;12.470;2023-04-15T23:28:35;102572.94;;;6.17;100.00
19236;BME280;9752;54.270;12.470;2023-04-15T23:33:36;102575.38;;;6.24;100.00
19236;BME280;9752;54.270;12.470;2023-04-15T23:38:40;102570.09;;;6.22;100.00
19236;BME280;9752;54.270;12.470;2023-04-15T23:43:42;102558.47;;;6.26;100.00
19236;BME280;9752;54.270;12.470;2023-04-15T23:48:43;102568.16;;;6.29;100.00
19236;BME280;9752;54.270;12.470;2023-04-15T23:53:48;102560.00;;;6.33;100.00
19236;BME280;9752;54.270;12.470;2023-04-15T23:58:51;102544.81;;;6.27;100.00
